Aviation Digital Data Service (ADDS)

Output produced by TAFs form (1625 UTC 25 April 2018)
found at http://aviationweather.gov/adds/tafs/
 
KPSF 251334Z 2514/2612 07005KT 5SM -SHRA BR OVC015 
     TEMPO 2514/2516 3SM -SHRA BR OVC008 
     FM251600 11006KT 6SM -RA OVC010 
     FM252100 VRB03KT 4SM -DZ BR OVC007 
     FM260300 VRB03KT 4SM -SHRA BR OVC015